CheckWX is a tool to help pilots better visualize weather data.  It is not intended as a substitute for an official pre-flight weather briefing.

05:49:01 UTC

EFSA METAR
Savonlinna Airport
Savonlinna, Finland
Current

29 mins ago

EFSA 200520Z AUTO 22004KT 170V260 2500 BR OVC002 01/01 Q0985
Observed
Feb-20 @ 05:20 UTC
Wind
  • 220° at 4 KTS
Visibility
2,494 meters
Flight Rules
LIFR
Conditions
Mist
Cloud Levels
  • Overcast at 200' AGL
Temperature
C / 34°F
Dewpoint
C / 34°F
Humidity
100%
Altimeter
29.08" Hg
Pressure
984.92 hPa
Previous

59 mins ago

EFSA 200450Z AUTO 22004KT 180V270 1900 BR OVC002 01/01 Q0985
Observed
Feb-20 @ 04:50 UTC
Wind
  • 220° at 4 KTS
Visibility
1,899 meters
Flight Rules
LIFR
Conditions
Mist
Cloud Levels
  • Overcast at 200' AGL
Temperature
C / 34°F
Dewpoint
C / 34°F
Humidity
100%
Altimeter
29.08" Hg
Pressure
984.92 hPa
Previous

1 hour ago

EFSA 200420Z AUTO 22004KT 170V270 1800 BR OVC002 01/01 Q0985
Observed
Feb-20 @ 04:20 UTC
Wind
  • 220° at 4 KTS
Visibility
1,802 meters
Flight Rules
LIFR
Conditions
Mist
Cloud Levels
  • Overcast at 200' AGL
Temperature
C / 34°F
Dewpoint
C / 34°F
Humidity
100%
Altimeter
29.08" Hg
Pressure
984.92 hPa